createdAt,value
2023-04-15T00:01:04.612Z,7.61
2023-04-15T00:03:31.715Z,7.61
2023-04-15T00:05:58.604Z,7.61
2023-04-15T00:08:25.683Z,7.60
2023-04-15T00:10:53.446Z,7.63
2023-04-15T00:13:20.335Z,7.60
2023-04-15T00:15:48.090Z,7.61
2023-04-15T00:18:14.873Z,7.60
2023-04-15T00:20:41.742Z,7.62
2023-04-15T00:23:08.669Z,7.62
2023-04-15T00:25:35.429Z,7.63
2023-04-15T00:28:02.739Z,7.63
2023-04-15T00:30:29.516Z,7.62
2023-04-15T00:32:56.317Z,7.62
2023-04-15T00:35:24.139Z,7.61
2023-04-15T00:37:51.586Z,7.61
2023-04-15T00:40:21.097Z,7.61
2023-04-15T00:42:48.289Z,7.63
2023-04-15T00:45:15.717Z,7.60
2023-04-15T00:47:43.841Z,7.63
2023-04-15T00:50:12.608Z,7.62
2023-04-15T00:52:40.909Z,7.63
2023-04-15T00:55:09.008Z,7.61
2023-04-15T00:57:36.506Z,7.61
2023-04-15T01:00:04.927Z,7.62
2023-04-15T01:02:33.009Z,7.63
2023-04-15T01:05:00.182Z,7.62
2023-04-15T01:07:27.177Z,7.61
2023-04-15T01:09:54.067Z,7.59
2023-04-15T01:12:21.240Z,7.62
2023-04-15T01:14:48.020Z,7.62
2023-04-15T01:17:14.994Z,7.62
2023-04-15T01:19:41.925Z,7.61
2023-04-15T01:22:09.245Z,7.60
2023-04-15T01:24:37.714Z,7.60
2023-04-15T01:27:07.291Z,7.60
2023-04-15T01:29:38.371Z,7.64
2023-04-15T01:32:05.949Z,7.62
2023-04-15T01:34:35.462Z,7.60
2023-04-15T01:37:02.574Z,7.62
2023-04-15T01:39:29.300Z,7.64
2023-04-15T01:41:56.050Z,7.62
2023-04-15T01:44:22.796Z,7.59
2023-04-15T01:46:49.647Z,7.59
2023-04-15T01:49:17.053Z,7.61
2023-04-15T01:51:43.880Z,7.61
2023-04-15T01:54:10.638Z,7.62
2023-04-15T01:56:37.475Z,7.62
2023-04-15T01:59:04.279Z,7.61
2023-04-15T02:01:31.159Z,7.60
2023-04-15T02:03:58.050Z,7.62
2023-04-15T02:06:25.470Z,7.61
2023-04-15T02:08:52.286Z,7.61
2023-04-15T02:11:19.875Z,7.58
2023-04-15T02:13:46.881Z,7.61
2023-04-15T02:16:20.324Z,7.60
2023-04-15T02:18:47.545Z,7.61
2023-04-15T02:21:14.977Z,7.60
2023-04-15T02:23:41.792Z,7.58
2023-04-15T02:26:08.590Z,7.56
2023-04-15T02:28:35.924Z,7.59
2023-04-15T02:31:06.667Z,7.61
2023-04-15T02:33:33.831Z,7.59
2023-04-15T02:36:01.150Z,7.62
2023-04-15T02:38:27.928Z,7.61
2023-04-15T02:40:54.732Z,7.60
2023-04-15T02:43:21.772Z,7.58
2023-04-15T02:45:48.691Z,7.59
2023-04-15T02:48:18.092Z,7.59
2023-04-15T02:50:46.699Z,7.57
2023-04-15T02:53:14.750Z,7.57
2023-04-15T02:55:42.862Z,7.57
2023-04-15T02:58:09.904Z,7.59
2023-04-15T03:00:36.777Z,7.60
2023-04-15T03:03:05.342Z,7.57
2023-04-15T03:05:32.714Z,7.60
2023-04-15T03:08:01.292Z,7.57
2023-04-15T03:10:28.540Z,7.59
2023-04-15T03:12:55.723Z,7.57
2023-04-15T03:15:23.159Z,7.60
2023-04-15T03:17:50.116Z,7.57
2023-04-15T03:20:17.146Z,7.56
2023-04-15T03:22:43.998Z,7.58
2023-04-15T03:25:10.750Z,7.57
2023-04-15T03:27:38.920Z,7.58
2023-04-15T03:30:07.857Z,7.58
2023-04-15T03:32:34.927Z,7.56
2023-04-15T03:35:01.718Z,7.55
2023-04-15T03:37:28.709Z,7.56
2023-04-15T03:39:55.657Z,7.55
2023-04-15T03:42:22.483Z,7.56
2023-04-15T03:44:49.324Z,7.53
2023-04-15T03:47:16.511Z,7.53
2023-04-15T03:49:46.302Z,7.54
2023-04-15T03:52:12.996Z,7.55
2023-04-15T03:54:39.749Z,7.53
2023-04-15T03:57:06.646Z,7.54
2023-04-15T03:59:33.398Z,7.58
2023-04-15T04:02:00.462Z,7.57
2023-04-15T04:04:27.353Z,7.54
2023-04-15T04:06:54.119Z,7.53
2023-04-15T04:09:20.958Z,7.53
2023-04-15T04:11:47.675Z,7.58
2023-04-15T04:14:14.435Z,7.55
2023-04-15T04:16:41.598Z,7.54
2023-04-15T04:19:08.660Z,7.54
2023-04-15T04:21:36.572Z,7.54
2023-04-15T04:24:03.554Z,7.54
2023-04-15T04:26:30.517Z,7.53
2023-04-15T04:28:57.283Z,7.54
2023-04-15T04:31:24.142Z,7.54
2023-04-15T04:33:51.314Z,7.57
2023-04-15T04:36:18.564Z,7.59
2023-04-15T04:38:45.417Z,7.57
2023-04-15T04:41:12.176Z,7.58
2023-04-15T04:43:39.015Z,7.59
2023-04-15T04:46:05.897Z,7.58
2023-04-15T04:48:32.913Z,7.58
2023-04-15T04:50:59.755Z,7.62
2023-04-15T04:53:26.721Z,7.65
2023-04-15T04:55:53.683Z,7.62
2023-04-15T04:58:20.694Z,7.62
2023-04-15T05:00:47.995Z,7.64
2023-04-15T05:03:14.941Z,7.65
2023-04-15T05:05:41.933Z,7.65
2023-04-15T05:08:08.646Z,7.65
2023-04-15T05:10:35.426Z,7.68
2023-04-15T05:13:02.222Z,7.68
2023-04-15T05:15:29.372Z,7.68
2023-04-15T05:17:56.199Z,7.67
2023-04-15T05:20:22.967Z,7.66
2023-04-15T05:22:49.934Z,7.66
2023-04-15T05:25:17.001Z,7.66
2023-04-15T05:27:44.054Z,7.69
2023-04-15T05:30:13.327Z,7.69
2023-04-15T05:32:41.711Z,7.70
2023-04-15T05:35:08.722Z,7.73
2023-04-15T05:37:35.607Z,7.73
2023-04-15T05:40:02.396Z,7.76
2023-04-15T05:42:29.154Z,7.75
2023-04-15T05:44:56.277Z,7.78
2023-04-15T05:47:23.166Z,7.77
2023-04-15T05:49:49.978Z,7.77
2023-04-15T05:52:16.739Z,7.77
2023-04-15T05:54:43.485Z,7.78
2023-04-15T05:57:10.192Z,7.79
2023-04-15T05:59:37.039Z,7.80
2023-04-15T06:02:03.961Z,7.84
2023-04-15T06:04:31.178Z,7.84
2023-04-15T06:06:57.989Z,7.85
2023-04-15T06:09:24.897Z,7.87
2023-04-15T06:11:52.373Z,7.88
2023-04-15T06:14:19.087Z,7.90
2023-04-15T06:16:45.817Z,7.92
2023-04-15T06:19:12.531Z,7.92
2023-04-15T06:21:39.321Z,7.93
2023-04-15T06:24:06.418Z,7.97
2023-04-15T06:26:33.213Z,7.98
2023-04-15T06:29:00.468Z,8.00
2023-04-15T06:31:27.657Z,8.02
2023-04-15T06:33:54.508Z,8.04
2023-04-15T06:36:21.766Z,8.06
2023-04-15T06:38:48.579Z,8.09
2023-04-15T06:41:15.824Z,8.13
2023-04-15T06:43:42.570Z,8.16
2023-04-15T06:46:09.449Z,8.18
2023-04-15T06:48:36.369Z,8.20
2023-04-15T06:51:04.152Z,8.22
2023-04-15T06:53:31.046Z,8.25
2023-04-15T06:55:57.805Z,8.27
2023-04-15T06:58:24.555Z,8.29
2023-04-15T07:00:52.116Z,8.31
2023-04-15T07:03:19.091Z,8.34
2023-04-15T07:05:46.127Z,8.37
2023-04-15T07:08:12.893Z,8.39
2023-04-15T07:10:39.800Z,8.42
2023-04-15T07:13:08.874Z,8.44
2023-04-15T07:15:35.863Z,8.46
2023-04-15T07:18:02.756Z,8.48
2023-04-15T07:20:29.557Z,8.50
2023-04-15T07:22:56.453Z,8.54
2023-04-15T07:25:23.241Z,8.56
2023-04-15T07:27:50.104Z,8.57
2023-04-15T07:30:17.012Z,8.61
2023-04-15T07:32:43.877Z,8.64
2023-04-15T07:35:11.672Z,8.67
2023-04-15T07:37:38.452Z,8.70
2023-04-15T07:40:07.227Z,8.73
2023-04-15T07:42:34.597Z,8.77
2023-04-15T07:45:01.626Z,8.80
2023-04-15T07:47:28.672Z,8.83
2023-04-15T07:49:55.522Z,8.87
2023-04-15T07:52:22.429Z,8.91
2023-04-15T07:54:49.334Z,8.94
2023-04-15T07:57:17.149Z,8.97
2023-04-15T07:59:43.967Z,9.00
2023-04-15T08:02:11.994Z,9.04
2023-04-15T08:04:39.496Z,9.05
2023-04-15T08:07:07.214Z,9.08
2023-04-15T08:09:34.094Z,9.10
2023-04-15T08:12:01.099Z,9.12
2023-04-15T08:14:27.915Z,9.14
2023-04-15T08:16:54.669Z,9.17
2023-04-15T08:19:21.563Z,9.20
2023-04-15T08:21:48.390Z,9.21
2023-04-15T08:24:15.692Z,9.25
2023-04-15T08:26:42.806Z,9.27
2023-04-15T08:29:09.626Z,9.30
2023-04-15T08:31:36.517Z,9.32
2023-04-15T08:34:03.734Z,9.35
2023-04-15T08:36:32.291Z,9.38
2023-04-15T08:39:01.449Z,9.42
2023-04-15T08:41:35.874Z,9.45
2023-04-15T08:44:05.812Z,9.48
2023-04-15T08:46:34.941Z,9.52
2023-04-15T08:49:05.303Z,9.57
2023-04-15T08:51:32.816Z,9.62
2023-04-15T08:54:00.595Z,9.64
2023-04-15T08:56:30.536Z,9.67
2023-04-15T08:58:57.919Z,9.70
2023-04-15T09:01:25.616Z,9.73
2023-04-15T09:03:54.872Z,9.74
2023-04-15T09:06:23.102Z,9.76
2023-04-15T09:08:50.715Z,9.79
2023-04-15T09:11:20.644Z,9.82
2023-04-15T09:13:47.432Z,9.83
2023-04-15T09:16:14.480Z,9.87
2023-04-15T09:18:41.560Z,9.89
2023-04-15T09:21:16.863Z,9.90
2023-04-15T09:23:59.291Z,9.92
2023-04-15T09:26:38.077Z,9.94
2023-04-15T09:29:09.404Z,9.96
2023-04-15T09:31:39.817Z,9.99
2023-04-15T09:34:07.414Z,10.00
2023-04-15T09:36:55.003Z,10.03
2023-04-15T09:39:22.162Z,10.05
2023-04-15T09:42:06.877Z,10.08
2023-04-15T09:44:33.932Z,10.10
2023-04-15T09:47:01.468Z,10.13
2023-04-15T09:49:28.653Z,10.17
2023-04-15T09:52:05.581Z,10.21
2023-04-15T09:54:37.382Z,10.25
2023-04-15T09:57:10.516Z,10.30
2023-04-15T09:59:37.421Z,10.35
2023-04-15T10:02:07.815Z,10.39
2023-04-15T10:04:37.535Z,10.42
2023-04-15T10:07:06.490Z,10.47
2023-04-15T10:09:35.794Z,10.50
2023-04-15T10:12:05.501Z,10.53
2023-04-15T10:14:35.026Z,10.57
2023-04-15T10:17:03.473Z,10.60
2023-04-15T10:19:33.463Z,10.63
2023-04-15T10:22:00.353Z,10.64
2023-04-15T10:24:27.912Z,10.65
2023-04-15T10:26:55.444Z,10.67
2023-04-15T10:29:25.725Z,10.68
2023-04-15T10:31:54.780Z,10.70
2023-04-15T10:34:22.974Z,10.72
2023-04-15T10:36:50.356Z,10.76
2023-04-15T10:39:38.973Z,10.79
2023-04-15T10:42:19.423Z,10.82
2023-04-15T10:44:51.634Z,10.84
2023-04-15T10:47:20.577Z,10.88
2023-04-15T10:49:48.671Z,10.90
2023-04-15T10:52:18.140Z,10.91
2023-04-15T10:54:45.447Z,10.93
2023-04-15T10:57:17.554Z,10.94
2023-04-15T11:00:04.831Z,10.97
2023-04-15T11:02:52.205Z,10.99
2023-04-15T11:05:20.811Z,10.98
2023-04-15T11:07:48.896Z,11.01
2023-04-15T11:10:18.666Z,11.02
2023-04-15T11:12:46.092Z,11.04
2023-04-15T11:15:34.045Z,11.04
2023-04-15T11:18:13.664Z,11.05
2023-04-15T11:20:45.357Z,11.06
2023-04-15T11:23:14.153Z,11.08
2023-04-15T11:25:41.858Z,11.10
2023-04-15T11:28:08.706Z,11.13
2023-04-15T11:30:37.708Z,11.14
2023-04-15T11:33:06.817Z,11.16
2023-04-15T11:35:33.729Z,11.20
2023-04-15T11:38:27.996Z,11.22
2023-04-15T11:40:54.855Z,11.25
2023-04-15T11:43:23.152Z,11.27
2023-04-15T11:46:01.967Z,11.28
2023-04-15T11:48:30.752Z,11.30
2023-04-15T11:51:05.382Z,11.32
2023-04-15T11:53:42.719Z,11.34
2023-04-15T11:56:11.696Z,11.36
2023-04-15T11:58:39.348Z,11.36
2023-04-15T12:01:07.372Z,11.38
2023-04-15T12:03:38.644Z,11.42
2023-04-15T12:06:24.915Z,11.44
2023-04-15T12:09:13.028Z,11.46
2023-04-15T12:11:48.507Z,11.50
2023-04-15T12:14:29.432Z,11.55
2023-04-15T12:17:06.743Z,11.60
2023-04-15T12:19:42.041Z,11.65
2023-04-15T12:22:14.109Z,11.71
2023-04-15T12:24:47.946Z,11.77
2023-04-15T12:27:17.797Z,11.82
2023-04-15T12:29:44.666Z,11.87
2023-04-15T12:32:13.239Z,11.94
2023-04-15T12:34:42.215Z,11.97
2023-04-15T12:37:10.690Z,12.01
2023-04-15T12:39:39.781Z,12.05
2023-04-15T12:42:07.566Z,12.10
2023-04-15T12:44:37.320Z,12.14
2023-04-15T12:47:04.750Z,12.18
2023-04-15T12:49:32.997Z,12.22
2023-04-15T12:52:01.084Z,12.27
2023-04-15T12:54:29.594Z,12.32
2023-04-15T12:56:57.322Z,12.36
2023-04-15T12:59:24.488Z,12.42
2023-04-15T13:01:53.514Z,12.44
2023-04-15T13:04:21.387Z,12.49
2023-04-15T13:06:48.518Z,12.52
2023-04-15T13:09:15.849Z,12.57
2023-04-15T13:11:42.751Z,12.64
2023-04-15T13:14:11.754Z,12.68
2023-04-15T13:16:39.219Z,12.72
2023-04-15T13:19:06.508Z,12.77
2023-04-15T13:21:35.964Z,12.80
2023-04-15T13:24:04.271Z,12.82
2023-04-15T13:26:32.073Z,12.85
2023-04-15T13:28:59.527Z,12.89
2023-04-15T13:31:26.469Z,12.91
2023-04-15T13:33:53.380Z,12.94
2023-04-15T13:36:20.178Z,12.99
2023-04-15T13:38:48.656Z,13.01
2023-04-15T13:41:17.395Z,13.05
2023-04-15T13:43:44.234Z,13.07
2023-04-15T13:46:11.199Z,13.11
2023-04-15T13:48:38.238Z,13.13
2023-04-15T13:51:05.268Z,13.15
2023-04-15T13:53:38.383Z,13.18
2023-04-15T13:56:09.698Z,13.20
2023-04-15T13:58:37.716Z,13.24
2023-04-15T14:01:06.067Z,13.27
2023-04-15T14:03:34.937Z,13.29
2023-04-15T14:06:03.352Z,13.33
2023-04-15T14:08:30.204Z,13.35
2023-04-15T14:10:57.753Z,13.38
2023-04-15T14:13:24.730Z,13.42
2023-04-15T14:15:51.705Z,13.46
2023-04-15T14:18:18.509Z,13.48
2023-04-15T14:20:45.268Z,13.49
2023-04-15T14:23:12.167Z,13.51
2023-04-15T14:25:39.844Z,13.54
2023-04-15T14:28:07.245Z,13.54
2023-04-15T14:30:34.028Z,13.55
2023-04-15T14:33:39.811Z,13.54
2023-04-15T14:36:34.144Z,13.52
2023-04-15T14:39:11.313Z,13.51
2023-04-15T14:41:38.283Z,13.48
2023-04-15T14:44:05.484Z,13.47
2023-04-15T14:46:33.862Z,13.45
2023-04-15T14:49:00.732Z,13.42
2023-04-15T14:51:27.786Z,13.42
2023-04-15T14:53:54.586Z,13.37
2023-04-15T14:56:21.597Z,13.29
2023-04-15T14:58:49.412Z,13.15
2023-04-15T15:01:16.709Z,13.01
2023-04-15T15:03:43.913Z,12.76
2023-04-15T15:06:11.114Z,12.65
2023-04-15T15:08:38.077Z,12.53
2023-04-15T15:11:04.898Z,12.47
2023-04-15T15:13:31.761Z,12.43
2023-04-15T15:15:58.651Z,12.38
2023-04-15T15:18:26.076Z,12.30
2023-04-15T15:20:52.844Z,12.26
2023-04-15T15:23:19.820Z,12.26
2023-04-15T15:25:47.408Z,12.24
2023-04-15T15:28:14.215Z,12.25
2023-04-15T15:30:41.121Z,12.25
2023-04-15T15:33:07.979Z,12.24
2023-04-15T15:35:34.730Z,12.28
2023-04-15T15:38:01.734Z,12.29
2023-04-15T15:40:28.792Z,12.31
2023-04-15T15:43:14.261Z,12.33
2023-04-15T15:45:41.448Z,12.36
2023-04-15T15:48:08.498Z,12.35
2023-04-15T15:50:35.704Z,12.31
2023-04-15T15:53:02.543Z,12.30
2023-04-15T15:55:29.352Z,12.27
2023-04-15T15:57:56.093Z,12.25
2023-04-15T16:00:23.280Z,12.24
2023-04-15T16:03:06.186Z,12.19
2023-04-15T16:05:35.148Z,12.16
2023-04-15T16:08:02.360Z,12.12
2023-04-15T16:10:29.138Z,12.07
2023-04-15T16:12:56.084Z,12.05
2023-04-15T16:15:25.500Z,12.05
2023-04-15T16:17:52.676Z,11.97
2023-04-15T16:20:19.510Z,11.95
2023-04-15T16:22:46.560Z,11.92
2023-04-15T16:25:13.342Z,11.89
2023-04-15T16:27:57.133Z,11.82
2023-04-15T16:30:28.965Z,11.80
2023-04-15T16:32:56.944Z,11.77
2023-04-15T16:35:24.077Z,11.74
2023-04-15T16:37:51.186Z,11.73
2023-04-15T16:40:18.432Z,11.70
2023-04-15T16:42:45.618Z,11.68
2023-04-15T16:45:12.596Z,11.68
2023-04-15T16:47:39.575Z,11.68
2023-04-15T16:50:07.653Z,11.67
2023-04-15T16:52:35.035Z,11.62
2023-04-15T16:55:02.410Z,11.60
2023-04-15T16:58:00.645Z,11.60
2023-04-15T17:00:16.566Z,11.60
2023-04-15T17:02:43.738Z,11.59
2023-04-15T17:05:11.360Z,11.54
2023-04-15T17:07:38.528Z,11.52
2023-04-15T17:10:06.461Z,11.50
2023-04-15T17:12:33.515Z,11.45
2023-04-15T17:15:00.313Z,11.46
2023-04-15T17:17:27.135Z,11.45
2023-04-15T17:19:53.966Z,11.44
2023-04-15T17:22:21.241Z,11.42
2023-04-15T17:24:48.865Z,11.40
2023-04-15T17:27:16.259Z,11.40
2023-04-15T17:29:43.532Z,11.38
2023-04-15T17:32:11.277Z,11.35
2023-04-15T17:34:50.758Z,11.25
2023-04-15T17:37:18.817Z,11.18
2023-04-15T17:39:46.157Z,11.14
2023-04-15T17:42:13.753Z,11.12
2023-04-15T17:44:41.226Z,11.10
2023-04-15T17:47:08.672Z,11.09
2023-04-15T17:49:38.225Z,11.05
2023-04-15T17:52:05.459Z,10.99
2023-04-15T17:54:32.365Z,10.98
2023-04-15T17:57:01.777Z,10.97
2023-04-15T17:59:29.808Z,10.97
2023-04-15T18:01:59.898Z,10.94
2023-04-15T18:04:28.034Z,10.93
2023-04-15T18:06:55.661Z,10.93
2023-04-15T18:09:23.032Z,10.90
2023-04-15T18:11:50.496Z,10.90
2023-04-15T18:16:58.483Z,10.91
2023-04-15T18:19:25.846Z,10.89
2023-04-15T18:21:53.218Z,10.89
2023-04-15T18:24:20.531Z,10.86
2023-04-15T18:26:49.200Z,10.83
2023-04-15T18:29:18.007Z,10.80
2023-04-15T18:31:45.539Z,10.79
2023-04-15T18:34:13.499Z,10.76
2023-04-15T18:36:41.144Z,10.77
2023-04-15T18:39:08.882Z,10.71
2023-04-15T18:41:36.786Z,10.67
2023-04-15T18:44:04.491Z,10.68
2023-04-15T18:46:32.026Z,10.63
2023-04-15T18:48:59.414Z,10.63
2023-04-15T18:51:27.926Z,10.62
2023-04-15T18:53:55.832Z,10.61
2023-04-15T18:56:24.730Z,10.62
2023-04-15T18:59:26.963Z,10.62
2023-04-15T19:01:39.971Z,10.59
2023-04-15T19:04:07.282Z,10.58
2023-04-15T19:06:34.189Z,10.58
2023-04-15T19:09:01.900Z,10.57
2023-04-15T19:11:29.727Z,10.56
2023-04-15T19:13:57.074Z,10.54
2023-04-15T19:16:24.320Z,10.51
2023-04-15T19:18:55.168Z,10.50
2023-04-15T19:21:23.404Z,10.48
2023-04-15T19:23:50.789Z,10.44
2023-04-15T19:26:19.233Z,10.40
2023-04-15T19:28:46.701Z,10.37
2023-04-15T19:31:14.337Z,10.38
2023-04-15T19:33:42.777Z,10.38
2023-04-15T19:36:12.660Z,10.33
2023-04-15T19:38:40.603Z,10.28
2023-04-15T19:41:11.026Z,10.27
2023-04-15T19:43:38.749Z,10.25
2023-04-15T19:46:08.396Z,10.23
2023-04-15T19:48:37.339Z,10.23
2023-04-15T19:51:05.014Z,10.20
2023-04-15T19:53:32.368Z,10.18
2023-04-15T19:56:00.124Z,10.19
2023-04-15T19:58:28.325Z,10.20
2023-04-15T20:00:55.635Z,10.20
2023-04-15T20:03:23.315Z,10.19
2023-04-15T20:05:51.083Z,10.15
2023-04-15T20:08:19.529Z,10.11
2023-04-15T20:10:47.062Z,10.08
2023-04-15T20:13:14.499Z,10.04
2023-04-15T20:15:41.680Z,10.01
2023-04-15T20:18:09.150Z,10.01
2023-04-15T20:20:39.953Z,10.03
2023-04-15T20:23:10.862Z,9.98
2023-04-15T20:25:38.621Z,9.95
2023-04-15T20:28:05.733Z,9.93
2023-04-15T20:30:33.325Z,9.93
2023-04-15T20:33:01.302Z,9.93
2023-04-15T20:35:28.459Z,9.90
2023-04-15T20:37:55.559Z,9.89
2023-04-15T20:40:23.650Z,9.86
2023-04-15T20:42:51.379Z,9.82
2023-04-15T20:45:18.962Z,9.83
2023-04-15T20:47:46.276Z,9.82
2023-04-15T20:50:13.337Z,9.80
2023-04-15T20:52:40.406Z,9.79
2023-04-15T20:55:08.055Z,9.75
2023-04-15T20:57:35.233Z,9.75
2023-04-15T21:00:02.484Z,9.70
2023-04-15T21:02:29.810Z,9.69
2023-04-15T21:05:01.292Z,9.62
2023-04-15T21:07:28.283Z,9.61
2023-04-15T21:09:56.098Z,9.58
2023-04-15T21:12:22.967Z,9.56
2023-04-15T21:14:50.063Z,9.51
2023-04-15T21:17:16.948Z,9.48
2023-04-15T21:19:43.881Z,9.45
2023-04-15T21:22:10.643Z,9.41
2023-04-15T21:24:37.396Z,9.36
2023-04-15T21:27:04.271Z,9.32
2023-04-15T21:29:31.178Z,9.26
2023-04-15T21:31:58.040Z,9.22
2023-04-15T21:34:24.981Z,9.18
2023-04-15T21:36:52.077Z,9.18
2023-04-15T21:39:18.831Z,9.16
2023-04-15T21:41:45.756Z,9.14
2023-04-15T21:44:14.564Z,9.12
2023-04-15T21:46:42.078Z,9.08
2023-04-15T21:49:13.120Z,9.02
2023-04-15T21:51:39.837Z,8.88
2023-04-15T21:54:06.710Z,8.85
2023-04-15T21:56:33.518Z,8.81
2023-04-15T21:59:00.432Z,8.83
2023-04-15T22:01:27.459Z,8.83
2023-04-15T22:03:54.375Z,8.81
2023-04-15T22:06:21.762Z,8.78
2023-04-15T22:08:56.763Z,8.74
2023-04-15T22:11:27.700Z,8.70
2023-04-15T22:13:55.607Z,8.65
2023-04-15T22:16:22.413Z,8.64
2023-04-15T22:18:49.376Z,8.64
2023-04-15T22:21:16.408Z,8.65
2023-04-15T22:23:47.430Z,8.64
2023-04-15T22:26:14.527Z,8.62
2023-04-15T22:28:41.815Z,8.57
2023-04-15T22:31:08.815Z,8.56
2023-04-15T22:33:35.891Z,8.55
2023-04-15T22:36:02.637Z,8.53
2023-04-15T22:38:29.383Z,8.50
2023-04-15T22:40:56.308Z,8.49
2023-04-15T22:43:23.056Z,8.48
2023-04-15T22:45:50.678Z,8.47
2023-04-15T22:48:18.390Z,8.46
2023-04-15T22:50:45.243Z,8.46
2023-04-15T22:53:12.356Z,8.45
2023-04-15T22:55:39.179Z,8.44
2023-04-15T22:58:06.119Z,8.44
2023-04-15T23:00:32.888Z,8.41
2023-04-15T23:02:59.903Z,8.39
2023-04-15T23:05:27.725Z,8.36
2023-04-15T23:07:54.791Z,8.36
2023-04-15T23:10:21.776Z,8.34
2023-04-15T23:12:48.817Z,8.32
2023-04-15T23:15:15.852Z,8.35
2023-04-15T23:17:43.377Z,8.31
2023-04-15T23:20:11.418Z,8.29
2023-04-15T23:22:38.652Z,8.25
2023-04-15T23:25:05.910Z,8.21
2023-04-15T23:27:32.733Z,8.23
2023-04-15T23:29:59.519Z,8.24
2023-04-15T23:32:27.449Z,8.23
2023-04-15T23:34:54.347Z,8.20
2023-04-15T23:37:21.164Z,8.18
2023-04-15T23:39:47.877Z,8.18
2023-04-15T23:42:14.910Z,8.14
2023-04-15T23:44:41.915Z,8.10
2023-04-15T23:47:08.818Z,8.10
2023-04-15T23:49:36.738Z,8.10
2023-04-15T23:52:03.853Z,8.09
2023-04-15T23:54:30.754Z,8.11
2023-04-15T23:56:57.514Z,8.11
2023-04-15T23:59:24.330Z,8.10
